Lake Mead Rancheros, Arizona
Current Conditions -  °F | °C
As of 5:51 AM on Wednesday 26 Nov 2014 (Local Time) from KIGM Reporting Station
Clear Clear  
Wind Chill: 36°   Ceiling: Unl
Heat Index: 42°   Visibility: 10mi
Dew Point:   Wind: 10mph
Humidity: 25%   Direction: 90°E
Pressure: 30.37"   Gusts: NA
Location:  35.2036°N, 114.02°W
Report Text: KIGM 261251Z AUTO 09009KT 10SM CLR 06/M13 A3037 RMK AO2 SLP258 T00561133
Loading
Personal Weather Stations






























Interactive Weather Map New forecast layout! Learn more

10-Day Weather Forecast

Advertisements
Track Severe Weather on mobile